createdAt,value
2019-03-12T00:00:16.116Z,4.20
2019-03-12T00:02:44.774Z,4.28
2019-03-12T00:05:13.432Z,4.03
2019-03-12T00:07:42.095Z,4.45
2019-03-12T00:10:10.878Z,3.70
2019-03-12T00:12:39.488Z,4.22
2019-03-12T00:15:08.485Z,4.22
2019-03-12T00:17:37.091Z,3.70
2019-03-12T00:20:07.663Z,3.98
2019-03-12T00:22:36.269Z,3.58
2019-03-12T00:25:05.257Z,4.15
2019-03-12T00:27:33.863Z,4.62
2019-03-12T00:30:03.571Z,4.08
2019-03-12T00:32:32.176Z,4.17
2019-03-12T00:35:00.784Z,4.47
2019-03-12T00:37:29.445Z,4.40
2019-03-12T00:39:58.050Z,4.00
2019-03-12T00:42:26.719Z,4.70
2019-03-12T00:44:55.324Z,4.40
2019-03-12T00:47:24.014Z,4.22
2019-03-12T00:49:52.673Z,4.45
2019-03-12T00:52:21.491Z,4.22
2019-03-12T00:54:50.144Z,4.70
2019-03-12T00:57:18.760Z,4.30
2019-03-12T00:59:47.424Z,4.62
2019-03-12T01:02:16.131Z,4.25
2019-03-12T01:04:44.824Z,4.78
2019-03-12T01:07:13.475Z,4.83
2019-03-12T01:09:42.190Z,4.70
2019-03-12T01:12:10.851Z,5.05
2019-03-12T01:14:39.460Z,4.83
2019-03-12T01:17:08.121Z,4.83
2019-03-12T01:19:36.728Z,4.53
2019-03-12T01:22:05.385Z,5.80
2019-03-12T01:24:33.994Z,4.72
2019-03-12T01:27:02.660Z,5.65
2019-03-12T01:29:31.269Z,5.55
2019-03-12T01:31:59.959Z,5.28
2019-03-12T01:34:28.607Z,5.37
2019-03-12T01:36:57.219Z,4.78
2019-03-12T01:39:25.878Z,5.42
2019-03-12T01:41:54.535Z,5.22
2019-03-12T01:44:23.136Z,5.28
2019-03-12T01:46:51.868Z,4.60
2019-03-12T01:49:20.524Z,5.70
2019-03-12T01:51:49.130Z,6.08
2019-03-12T01:54:17.747Z,7.08
2019-03-12T01:56:46.395Z,5.08
2019-03-12T01:59:15.002Z,5.87
2019-03-12T02:01:43.660Z,5.37
2019-03-12T02:04:12.312Z,5.03
2019-03-12T02:06:40.930Z,6.25
2019-03-12T02:09:10.055Z,5.70
2019-03-12T02:11:38.730Z,5.85
2019-03-12T02:14:27.523Z,5.60
2019-03-12T02:16:56.368Z,5.87
2019-03-12T02:19:25.025Z,6.80
2019-03-12T02:21:53.687Z,7.00
2019-03-12T02:24:22.284Z,7.17
2019-03-12T02:26:50.944Z,8.05
2019-03-12T02:29:19.590Z,7.75
2019-03-12T02:31:48.309Z,7.87
2019-03-12T02:34:16.907Z,7.00
2019-03-12T02:36:45.551Z,7.80
2019-03-12T02:39:14.383Z,6.30
2019-03-12T02:41:42.985Z,7.17
2019-03-12T02:44:11.595Z,6.75
2019-03-12T02:46:40.236Z,6.50
2019-03-12T02:49:10.067Z,6.30
2019-03-12T02:51:39.023Z,6.10
2019-03-12T02:54:08.033Z,5.85
2019-03-12T02:56:36.685Z,6.10
2019-03-12T02:59:05.340Z,6.40
2019-03-12T03:01:33.941Z,6.35
2019-03-12T03:04:02.600Z,5.90
2019-03-12T03:06:31.194Z,5.90
2019-03-12T03:08:59.841Z,5.60
2019-03-12T03:11:28.640Z,5.35
2019-03-12T03:13:57.405Z,5.50
2019-03-12T03:16:26.190Z,4.95
2019-03-12T03:18:54.866Z,6.17
2019-03-12T03:21:23.523Z,5.42
2019-03-12T03:23:52.177Z,5.05
2019-03-12T03:26:20.819Z,5.15
2019-03-12T03:28:49.421Z,4.62
2019-03-12T03:31:18.080Z,4.97
2019-03-12T03:33:46.707Z,5.05
2019-03-12T03:36:15.367Z,4.85
2019-03-12T03:38:44.020Z,5.10
2019-03-12T03:41:12.619Z,5.03
2019-03-12T03:43:41.271Z,4.70
2019-03-12T03:46:09.876Z,4.92
2019-03-12T03:48:38.527Z,5.20
2019-03-12T03:51:07.127Z,4.90
2019-03-12T03:53:35.819Z,4.95
2019-03-12T03:56:04.616Z,4.37
2019-03-12T03:58:33.226Z,5.47
2019-03-12T04:01:01.997Z,5.35
2019-03-12T04:03:30.646Z,5.35
2019-03-12T04:05:59.258Z,5.35
2019-03-12T04:08:27.977Z,5.30
2019-03-12T04:10:56.581Z,5.85
2019-03-12T04:13:25.231Z,6.25
2019-03-12T04:15:53.841Z,5.47
2019-03-12T04:18:22.483Z,5.70
2019-03-12T04:20:51.096Z,6.55
2019-03-12T04:23:19.744Z,5.72
2019-03-12T04:25:48.408Z,5.97
2019-03-12T04:28:17.039Z,6.12
2019-03-12T04:30:45.687Z,6.42
2019-03-12T04:33:54.199Z,6.08
2019-03-12T04:36:22.804Z,7.20
2019-03-12T04:38:51.459Z,6.78
2019-03-12T04:41:20.110Z,6.78
2019-03-12T04:43:48.718Z,6.25
2019-03-12T04:46:17.369Z,7.10
2019-03-12T04:48:45.976Z,7.90
2019-03-12T04:51:14.625Z,6.40
2019-03-12T04:53:43.273Z,7.15
2019-03-12T04:56:11.877Z,7.40
2019-03-12T04:58:40.542Z,7.30
2019-03-12T05:01:09.140Z,7.28
2019-03-12T05:03:37.805Z,7.40
2019-03-12T05:06:06.410Z,6.90
2019-03-12T05:08:35.054Z,7.97
2019-03-12T05:11:03.872Z,7.60
2019-03-12T05:13:32.525Z,7.55
2019-03-12T05:16:01.177Z,7.70
2019-03-12T05:18:29.777Z,7.15
2019-03-12T05:20:58.434Z,6.35
2019-03-12T05:23:27.032Z,6.37
2019-03-12T05:25:55.685Z,7.12
2019-03-12T05:28:24.291Z,6.70
2019-03-12T05:30:52.935Z,6.75
2019-03-12T05:33:21.659Z,6.95
2019-03-12T05:35:50.383Z,6.17
2019-03-12T05:38:18.990Z,6.20
2019-03-12T05:40:47.636Z,6.00
2019-03-12T05:43:16.241Z,6.22
2019-03-12T05:45:44.892Z,6.05
2019-03-12T05:48:13.497Z,6.62
2019-03-12T05:50:42.189Z,6.33
2019-03-12T05:53:15.118Z,6.12
2019-03-12T05:55:43.834Z,6.00
2019-03-12T05:58:12.433Z,5.97
2019-03-12T06:00:41.086Z,6.00
2019-03-12T06:03:09.696Z,5.65
2019-03-12T06:05:38.339Z,5.95
2019-03-12T06:08:06.939Z,5.72
2019-03-12T06:10:35.587Z,6.10
2019-03-12T06:13:04.194Z,6.20
2019-03-12T06:15:32.857Z,5.65
2019-03-12T06:18:01.539Z,5.47
2019-03-12T06:20:30.236Z,7.37
2019-03-12T06:22:58.891Z,6.42
2019-03-12T06:25:27.544Z,6.05
2019-03-12T06:27:56.142Z,6.58
2019-03-12T06:30:26.058Z,6.05
2019-03-12T06:32:54.768Z,5.92
2019-03-12T06:35:23.429Z,6.67
2019-03-12T06:37:52.033Z,6.75
2019-03-12T06:40:20.679Z,6.15
2019-03-12T06:42:49.373Z,5.47
2019-03-12T06:45:18.014Z,5.83
2019-03-12T06:47:46.690Z,5.47
2019-03-12T06:50:15.454Z,6.10
2019-03-12T06:52:44.053Z,5.42
2019-03-12T06:55:12.699Z,5.80
2019-03-12T06:58:01.014Z,6.15
2019-03-12T07:00:29.663Z,5.50
2019-03-12T07:02:58.263Z,5.30
2019-03-12T07:05:26.909Z,4.95
2019-03-12T07:07:55.562Z,4.80
2019-03-12T07:10:24.215Z,4.75
2019-03-12T07:12:52.864Z,5.28
2019-03-12T07:15:21.465Z,4.87
2019-03-12T07:17:50.069Z,4.97
2019-03-12T07:20:18.722Z,5.03
2019-03-12T07:22:47.327Z,4.47
2019-03-12T07:25:15.970Z,4.65
2019-03-12T07:27:44.573Z,4.12
2019-03-12T07:30:13.540Z,3.87
2019-03-12T07:32:42.140Z,4.53
2019-03-12T07:35:10.740Z,4.60
2019-03-12T07:37:39.388Z,4.28
2019-03-12T07:40:09.959Z,3.92
2019-03-12T07:42:38.560Z,4.08
2019-03-12T07:45:08.966Z,4.37
2019-03-12T07:47:37.622Z,3.87
2019-03-12T07:50:08.592Z,4.58
2019-03-12T07:52:37.197Z,3.50
2019-03-12T07:55:06.168Z,3.70
2019-03-12T07:57:34.999Z,3.77
2019-03-12T08:00:24.546Z,4.22
2019-03-12T08:02:53.345Z,3.50
2019-03-12T08:05:21.945Z,3.33
2019-03-12T08:07:50.599Z,3.27
2019-03-12T08:10:21.952Z,3.67
2019-03-12T08:12:50.355Z,3.47
2019-03-12T08:15:23.357Z,3.77
2019-03-12T08:17:49.355Z,3.77
2019-03-12T08:20:17.951Z,3.50
2019-03-12T08:23:01.377Z,4.10
2019-03-12T08:25:29.983Z,4.20
2019-03-12T08:27:58.575Z,4.42
2019-03-12T08:30:27.224Z,4.22
2019-03-12T08:32:55.831Z,3.98
2019-03-12T08:35:24.474Z,4.17
2019-03-12T08:37:53.075Z,4.50
2019-03-12T08:40:21.726Z,4.15
2019-03-12T08:42:54.757Z,3.95
2019-03-12T08:45:20.784Z,3.77
2019-03-12T08:47:49.436Z,3.90
2019-03-12T08:50:18.046Z,3.80
2019-03-12T08:52:46.702Z,4.08
2019-03-12T08:55:15.415Z,3.87
2019-03-12T08:57:44.022Z,4.00
2019-03-12T09:00:12.913Z,4.17
2019-03-12T09:02:41.578Z,4.20
2019-03-12T09:05:10.180Z,4.37
2019-03-12T09:07:38.832Z,3.98
2019-03-12T09:10:09.421Z,3.87
2019-03-12T09:12:38.069Z,4.85
2019-03-12T09:15:08.880Z,4.25
2019-03-12T09:17:37.528Z,4.00
2019-03-12T09:20:09.511Z,4.15
2019-03-12T09:22:38.227Z,4.25
2019-03-12T09:25:11.467Z,4.20
2019-03-12T09:27:56.820Z,4.17
2019-03-12T09:30:25.490Z,3.87
2019-03-12T09:32:54.139Z,4.03
2019-03-12T09:35:22.800Z,3.87
2019-03-12T09:37:51.397Z,4.05
2019-03-12T09:40:20.050Z,4.00
2019-03-12T09:42:48.657Z,4.12
2019-03-12T09:45:17.473Z,4.00
2019-03-12T09:47:46.073Z,4.37
2019-03-12T09:50:14.722Z,4.58
2019-03-12T09:52:43.321Z,4.30
2019-03-12T09:55:12.526Z,4.00
2019-03-12T09:57:42.424Z,3.80
2019-03-12T10:00:16.736Z,4.35
2019-03-12T10:02:46.068Z,3.58
2019-03-12T10:05:15.202Z,3.87
2019-03-12T10:07:44.568Z,3.58
2019-03-12T10:10:13.419Z,3.10
2019-03-12T10:12:51.280Z,3.83
2019-03-12T10:15:20.050Z,3.15
2019-03-12T10:17:48.768Z,3.60
2019-03-12T10:20:17.370Z,3.83
2019-03-12T10:22:46.439Z,4.15
2019-03-12T10:25:17.859Z,3.92
2019-03-12T10:27:46.525Z,3.90
2019-03-12T10:30:15.128Z,3.45
2019-03-12T10:32:43.841Z,3.58
2019-03-12T10:35:12.487Z,3.85
2019-03-12T10:37:41.094Z,3.42
2019-03-12T10:40:11.658Z,4.00
2019-03-12T10:42:44.936Z,4.17
2019-03-12T10:45:13.831Z,3.67
2019-03-12T10:47:42.433Z,4.62
2019-03-12T10:50:11.079Z,4.50
2019-03-12T10:52:39.679Z,4.65
2019-03-12T10:55:13.539Z,4.80
2019-03-12T10:57:39.520Z,5.20
2019-03-12T11:00:38.542Z,4.67
2019-03-12T11:03:07.430Z,4.40
2019-03-12T11:05:45.773Z,3.80
2019-03-12T11:08:08.970Z,4.12
2019-03-12T11:10:37.953Z,4.92
2019-03-12T11:13:06.705Z,4.35
2019-03-12T11:15:36.757Z,3.50
2019-03-12T11:18:06.322Z,3.30
2019-03-12T11:20:53.304Z,2.92
2019-03-12T11:23:20.157Z,3.02
2019-03-12T11:25:55.217Z,2.47
2019-03-12T11:30:57.237Z,2.02
2019-03-12T11:33:30.232Z,1.82
2019-03-12T11:36:03.125Z,1.70
2019-03-12T11:38:37.376Z,1.60
2019-03-12T11:41:18.233Z,1.47
2019-03-12T11:43:51.557Z,1.30
2019-03-12T11:46:29.224Z,1.50
2019-03-12T11:49:00.411Z,1.37
2019-03-12T11:51:31.633Z,1.25
2019-03-12T11:54:05.515Z,1.10
2019-03-12T11:56:36.731Z,1.10
2019-03-12T11:59:08.221Z,1.20
2019-03-12T12:01:38.627Z,1.00
2019-03-12T12:04:13.555Z,1.27
2019-03-12T12:06:45.092Z,0.93
2019-03-12T12:09:14.153Z,1.20
2019-03-12T12:11:56.219Z,1.42
2019-03-12T12:14:25.652Z,1.10
2019-03-12T12:16:56.280Z,1.27
2019-03-12T12:19:25.453Z,1.47
2019-03-12T12:21:54.985Z,1.60
2019-03-12T12:24:26.603Z,1.60
2019-03-12T12:26:54.764Z,1.92
2019-03-12T12:29:25.829Z,1.45
2019-03-12T12:31:55.699Z,1.45
2019-03-12T12:34:26.260Z,1.52
2019-03-12T12:36:55.049Z,0.98
2019-03-12T12:39:25.369Z,1.00
2019-03-12T12:41:54.895Z,1.10
2019-03-12T12:44:24.095Z,0.82
2019-03-12T12:47:01.659Z,0.88
2019-03-12T12:49:31.019Z,0.90
2019-03-12T12:52:03.974Z,0.78
2019-03-12T12:54:34.883Z,0.80
2019-03-12T12:57:05.669Z,0.80
2019-03-12T12:59:37.526Z,1.05
2019-03-12T13:02:06.716Z,0.95
2019-03-12T13:04:36.313Z,0.72
2019-03-12T13:07:05.511Z,0.68
2019-03-12T13:09:34.895Z,0.60
2019-03-12T13:12:05.853Z,0.90
2019-03-12T13:14:41.338Z,0.70
2019-03-12T13:17:06.581Z,0.72
2019-03-12T13:19:44.732Z,0.60
2019-03-12T13:22:21.696Z,0.50
2019-03-12T13:24:51.226Z,0.57
2019-03-12T13:27:25.106Z,0.50
2019-03-12T13:29:58.251Z,0.50
2019-03-12T13:32:28.013Z,0.42
2019-03-12T13:34:57.150Z,0.40
2019-03-12T13:37:26.199Z,0.50
2019-03-12T13:39:55.125Z,0.40
2019-03-12T13:42:24.085Z,0.60
2019-03-12T13:44:53.245Z,0.50
2019-03-12T13:47:29.130Z,0.68
2019-03-12T13:49:58.945Z,0.50
2019-03-12T13:52:27.840Z,0.40
2019-03-12T13:54:56.931Z,0.53
2019-03-12T13:57:26.391Z,0.60
2019-03-12T13:59:58.023Z,0.40
2019-03-12T14:02:27.138Z,0.50
2019-03-12T14:04:56.668Z,0.68
2019-03-12T14:07:25.538Z,0.62
2019-03-12T14:09:54.967Z,0.80
2019-03-12T14:12:24.008Z,0.80
2019-03-12T14:14:53.586Z,1.10
2019-03-12T14:17:24.506Z,1.62
2019-03-12T14:19:54.709Z,1.60
2019-03-12T14:22:25.182Z,1.30
2019-03-12T14:24:55.268Z,1.30
2019-03-12T14:27:24.541Z,1.22
2019-03-12T14:29:53.201Z,1.30
2019-03-12T14:32:21.858Z,1.02
2019-03-12T14:34:52.412Z,2.10
2019-03-12T14:37:22.005Z,1.57
2019-03-12T14:39:50.935Z,1.30
2019-03-12T14:42:19.677Z,1.00
2019-03-12T14:44:48.940Z,1.27
2019-03-12T14:47:19.358Z,1.27
2019-03-12T14:49:48.511Z,1.30
2019-03-12T14:52:17.915Z,1.10
2019-03-12T14:54:46.689Z,1.00
2019-03-12T14:57:15.344Z,1.00
2019-03-12T14:59:44.009Z,0.93
2019-03-12T15:02:12.709Z,0.90
2019-03-12T15:04:41.362Z,1.07
2019-03-12T15:07:09.974Z,1.02
2019-03-12T15:09:38.736Z,1.70
2019-03-12T15:12:07.473Z,1.60
2019-03-12T15:14:36.089Z,1.37
2019-03-12T15:17:04.749Z,1.77
2019-03-12T15:19:33.361Z,1.75
2019-03-12T15:22:02.298Z,1.42
2019-03-12T15:24:30.903Z,1.40
2019-03-12T15:26:59.564Z,1.17
2019-03-12T15:29:28.170Z,1.20
2019-03-12T15:32:03.980Z,1.20
2019-03-12T15:34:27.176Z,1.27
2019-03-12T15:36:55.787Z,1.17
2019-03-12T15:39:25.408Z,1.20
2019-03-12T15:41:54.139Z,1.25
2019-03-12T15:44:22.792Z,1.35
2019-03-12T15:46:51.405Z,1.20
2019-03-12T15:49:20.136Z,1.22
2019-03-12T15:51:48.737Z,0.90
2019-03-12T15:54:17.389Z,1.00
2019-03-12T15:56:46.050Z,0.80
2019-03-12T15:59:14.707Z,1.12
2019-03-12T16:01:43.394Z,1.00
2019-03-12T16:04:12.162Z,1.00
2019-03-12T16:06:40.772Z,1.10
2019-03-12T16:09:10.031Z,1.25
2019-03-12T16:11:38.687Z,1.10
2019-03-12T16:14:07.466Z,0.90
2019-03-12T16:16:36.124Z,0.90
2019-03-12T16:19:04.797Z,1.47
2019-03-12T16:21:33.469Z,2.87
2019-03-12T16:24:02.075Z,6.58
2019-03-12T16:26:30.725Z,5.33
2019-03-12T16:28:59.384Z,2.80
2019-03-12T16:31:28.038Z,1.70
2019-03-12T16:33:56.694Z,1.40
2019-03-12T16:36:25.347Z,1.77
2019-03-12T16:38:54.004Z,1.40
2019-03-12T16:41:22.666Z,1.15
2019-03-12T16:43:51.272Z,1.05
2019-03-12T16:46:19.923Z,1.12
2019-03-12T16:48:48.578Z,1.30
2019-03-12T16:51:17.182Z,1.60
2019-03-12T16:53:45.837Z,1.40
2019-03-12T16:56:14.460Z,1.40
2019-03-12T16:58:43.256Z,0.90
2019-03-12T17:01:11.930Z,1.20
2019-03-12T17:03:40.628Z,2.75
2019-03-12T17:06:09.236Z,2.80
2019-03-12T17:08:37.888Z,4.90
2019-03-12T17:11:06.500Z,4.50
2019-03-12T17:13:35.153Z,7.40
2019-03-12T17:16:03.773Z,5.83
2019-03-12T17:18:32.419Z,2.72
2019-03-12T17:21:01.025Z,5.40
2019-03-12T17:23:29.629Z,3.27
2019-03-12T17:25:58.284Z,6.55
2019-03-12T17:28:26.895Z,8.23
2019-03-12T17:30:55.549Z,5.92
2019-03-12T17:33:24.207Z,11.68
2019-03-12T17:35:53.207Z,12.25
2019-03-12T17:38:21.815Z,6.75
2019-03-12T17:40:50.469Z,4.53
2019-03-12T17:43:19.125Z,9.88
2019-03-12T17:45:47.795Z,5.53
2019-03-12T17:48:16.400Z,7.12
2019-03-12T17:50:45.005Z,6.33
2019-03-12T17:53:13.662Z,4.60
2019-03-12T17:55:42.270Z,6.87
2019-03-12T17:58:10.929Z,4.47
2019-03-12T18:00:39.541Z,5.20
2019-03-12T18:03:08.191Z,2.58
2019-03-12T18:05:36.922Z,5.10
2019-03-12T18:08:05.532Z,9.13
2019-03-12T18:10:34.140Z,5.33
2019-03-12T18:13:02.869Z,3.83
2019-03-12T18:15:31.472Z,3.00
2019-03-12T18:18:00.079Z,4.70
2019-03-12T18:20:28.734Z,1.95
2019-03-12T18:22:57.420Z,1.62
2019-03-12T18:25:35.239Z,1.67
2019-03-12T18:28:04.346Z,2.42
2019-03-12T18:30:33.125Z,1.95
2019-03-12T18:33:02.199Z,3.08
2019-03-12T18:35:33.137Z,1.87
2019-03-12T18:38:01.855Z,1.80
2019-03-12T18:40:30.520Z,3.22
2019-03-12T18:42:59.201Z,9.65
2019-03-12T18:45:36.043Z,6.08
2019-03-12T18:48:05.361Z,3.40
2019-03-12T18:50:34.088Z,13.60
2019-03-12T18:53:02.750Z,7.97
2019-03-12T18:55:38.070Z,9.25
2019-03-12T18:58:08.022Z,2.60
2019-03-12T19:00:38.992Z,2.17
2019-03-12T19:03:07.595Z,2.50
2019-03-12T19:05:36.255Z,2.17
2019-03-12T19:08:04.858Z,4.90
2019-03-12T19:10:33.584Z,4.95
2019-03-12T19:13:02.191Z,2.17
2019-03-12T19:15:30.916Z,10.32
2019-03-12T19:17:59.521Z,6.35
2019-03-12T19:20:28.263Z,2.80
2019-03-12T19:22:56.884Z,4.87
2019-03-12T19:25:44.375Z,2.17
2019-03-12T19:28:12.981Z,1.90
2019-03-12T19:30:41.644Z,1.40
2019-03-12T19:33:10.316Z,1.60
2019-03-12T19:35:38.996Z,1.20
2019-03-12T19:38:07.791Z,1.65
2019-03-12T19:40:52.432Z,2.20
2019-03-12T19:43:21.085Z,1.82
2019-03-12T19:45:49.698Z,1.90
2019-03-12T19:48:18.354Z,2.33
2019-03-12T19:50:47.030Z,2.30
2019-03-12T19:53:15.860Z,2.92
2019-03-12T19:55:49.154Z,1.80
2019-03-12T19:58:17.813Z,5.65
2019-03-12T20:00:47.774Z,2.65
2019-03-12T20:03:16.573Z,2.80
2019-03-12T20:05:45.472Z,2.12
2019-03-12T20:08:14.128Z,2.12
2019-03-12T20:11:22.434Z,1.60
2019-03-12T20:14:17.209Z,3.60
2019-03-12T20:17:24.020Z,2.65
2019-03-12T20:20:47.706Z,2.80
2019-03-12T20:24:00.171Z,2.00
2019-03-12T20:27:00.258Z,1.92
2019-03-12T20:30:23.834Z,2.70
2019-03-12T20:33:37.981Z,1.42
2019-03-12T20:36:27.664Z,1.20
2019-03-12T20:39:41.371Z,2.47
2019-03-12T20:42:36.972Z,3.10
2019-03-12T20:45:48.439Z,2.50
2019-03-12T20:48:45.770Z,3.15
2019-03-12T20:51:53.545Z,2.22
2019-03-12T20:54:47.836Z,2.20
2019-03-12T20:57:33.193Z,2.22
2019-03-12T21:00:48.720Z,1.77
2019-03-12T21:03:45.824Z,1.40
2019-03-12T21:06:57.226Z,1.25
2019-03-12T21:10:20.685Z,1.65
2019-03-12T21:13:27.372Z,1.65
2019-03-12T21:16:06.267Z,1.65
2019-03-12T21:18:57.733Z,1.60
2019-03-12T21:22:03.647Z,1.40
2019-03-12T21:25:06.260Z,1.90
2019-03-12T21:28:11.152Z,1.30
2019-03-12T21:30:39.979Z,1.07
2019-03-12T21:33:15.392Z,1.00
2019-03-12T21:35:39.135Z,1.42
2019-03-12T21:38:07.808Z,1.30
2019-03-12T21:40:36.464Z,1.27
2019-03-12T21:43:05.310Z,1.17
2019-03-12T21:45:33.967Z,1.20
2019-03-12T21:48:02.570Z,1.07
2019-03-12T21:50:31.221Z,1.12
2019-03-12T21:52:59.825Z,1.20
2019-03-12T21:55:28.471Z,1.07
2019-03-12T21:57:57.130Z,1.37
2019-03-12T22:00:25.790Z,1.40
2019-03-12T22:02:54.397Z,1.20
2019-03-12T22:05:23.076Z,1.40
2019-03-12T22:07:51.747Z,1.80
2019-03-12T22:10:20.397Z,1.27
2019-03-12T22:12:49.051Z,1.22
2019-03-12T22:15:17.797Z,1.40
2019-03-12T22:17:46.567Z,1.30
2019-03-12T22:20:15.611Z,1.30
2019-03-12T22:22:44.211Z,1.20
2019-03-12T22:25:14.003Z,1.30
2019-03-12T22:27:42.653Z,1.40
2019-03-12T22:30:22.443Z,1.42
2019-03-12T22:32:51.168Z,1.52
2019-03-12T22:35:19.813Z,1.22
2019-03-12T22:37:48.454Z,1.45
2019-03-12T22:40:17.103Z,1.57
2019-03-12T22:42:45.945Z,1.45
2019-03-12T22:45:14.623Z,1.25
2019-03-12T22:47:43.273Z,1.30
2019-03-12T22:50:16.159Z,1.40
2019-03-12T22:52:44.828Z,1.40
2019-03-12T22:55:14.369Z,1.35
2019-03-12T22:57:43.084Z,1.20
2019-03-12T23:00:16.907Z,1.30
2019-03-12T23:02:45.798Z,1.10
2019-03-12T23:05:15.144Z,1.30
2019-03-12T23:07:43.872Z,1.32
2019-03-12T23:10:13.886Z,1.65
2019-03-12T23:12:42.994Z,1.57
2019-03-12T23:15:15.081Z,1.22
2019-03-12T23:17:43.747Z,1.20
2019-03-12T23:20:16.276Z,1.22
2019-03-12T23:22:44.883Z,1.50
2019-03-12T23:25:13.967Z,1.15
2019-03-12T23:27:42.575Z,1.35
2019-03-12T23:30:19.383Z,1.12
2019-03-12T23:32:48.057Z,1.42
2019-03-12T23:35:16.850Z,1.30
2019-03-12T23:37:45.616Z,1.17
2019-03-12T23:40:17.178Z,1.10
2019-03-12T23:42:45.855Z,1.12
2019-03-12T23:45:16.335Z,1.00
2019-03-12T23:47:45.371Z,1.05
2019-03-12T23:50:16.285Z,1.30
2019-03-12T23:52:45.471Z,1.20
2019-03-12T23:55:15.789Z,1.22
2019-03-12T23:57:44.698Z,1.12
